Crotts Aircraft Service, Inc.
Current METAR for KDDC
KDDC 301852Z AUTO 04015KT 9SM OVC008 18/17 A3015 RMK AO2 CIG 006V012 SLP188 T01830167